sensor_id;sensor_type;location;lat;lon;timestamp;P1;durP1;ratioP1;P2;durP2;ratioP2
66935;SDS011;53847;51.984;5.896;2022-07-23T00:01:59;1.83;;;1.63;;
66935;SDS011;53847;51.984;5.896;2022-07-23T00:04:25;2.60;;;1.70;;
66935;SDS011;53847;51.984;5.896;2022-07-23T00:06:51;1.58;;;1.40;;
66935;SDS011;53847;51.984;5.896;2022-07-23T00:09:17;2.65;;;1.90;;
66935;SDS011;53847;51.984;5.896;2022-07-23T00:11:43;3.45;;;3.15;;
66935;SDS011;53847;51.984;5.896;2022-07-23T00:14:09;2.20;;;2.00;;
66935;SDS011;53847;51.984;5.896;2022-07-23T00:16:35;2.08;;;1.65;;
66935;SDS011;53847;51.984;5.896;2022-07-23T00:19:01;2.95;;;1.80;;
66935;SDS011;53847;51.984;5.896;2022-07-23T00:21:28;1.67;;;1.58;;
66935;SDS011;53847;51.984;5.896;2022-07-23T00:23:54;3.38;;;1.85;;
66935;SDS011;53847;51.984;5.896;2022-07-23T00:26:20;2.25;;;2.05;;
66935;SDS011;53847;51.984;5.896;2022-07-23T00:28:46;2.40;;;1.88;;
66935;SDS011;53847;51.984;5.896;2022-07-23T00:31:12;2.15;;;1.55;;
66935;SDS011;53847;51.984;5.896;2022-07-23T00:33:38;1.85;;;1.65;;
66935;SDS011;53847;51.984;5.896;2022-07-23T00:36:04;2.42;;;1.80;;
66935;SDS011;53847;51.984;5.896;2022-07-23T00:38:31;3.70;;;2.28;;
66935;SDS011;53847;51.984;5.896;2022-07-23T00:40:57;2.78;;;1.80;;
66935;SDS011;53847;51.984;5.896;2022-07-23T00:43:23;2.20;;;1.92;;
66935;SDS011;53847;51.984;5.896;2022-07-23T00:45:49;3.53;;;2.00;;
66935;SDS011;53847;51.984;5.896;2022-07-23T00:48:15;2.60;;;2.00;;
66935;SDS011;53847;51.984;5.896;2022-07-23T00:50:45;2.67;;;2.22;;
66935;SDS011;53847;51.984;5.896;2022-07-23T00:53:12;2.38;;;2.00;;
66935;SDS011;53847;51.984;5.896;2022-07-23T00:55:38;3.17;;;2.30;;
66935;SDS011;53847;51.984;5.896;2022-07-23T00:58:05;2.65;;;1.90;;
66935;SDS011;53847;51.984;5.896;2022-07-23T01:00:31;2.35;;;1.98;;
66935;SDS011;53847;51.984;5.896;2022-07-23T01:02:58;3.00;;;2.22;;
66935;SDS011;53847;51.984;5.896;2022-07-23T01:05:24;2.25;;;2.03;;
66935;SDS011;53847;51.984;5.896;2022-07-23T01:07:50;2.75;;;2.03;;
66935;SDS011;53847;51.984;5.896;2022-07-23T01:10:17;2.47;;;2.17;;
66935;SDS011;53847;51.984;5.896;2022-07-23T01:12:44;2.60;;;2.40;;
66935;SDS011;53847;51.984;5.896;2022-07-23T01:15:10;3.42;;;1.92;;
66935;SDS011;53847;51.984;5.896;2022-07-23T01:17:37;2.10;;;1.90;;
66935;SDS011;53847;51.984;5.896;2022-07-23T01:20:03;3.10;;;1.98;;
66935;SDS011;53847;51.984;5.896;2022-07-23T01:22:31;1.70;;;1.60;;
66935;SDS011;53847;51.984;5.896;2022-07-23T01:24:57;2.28;;;2.03;;
66935;SDS011;53847;51.984;5.896;2022-07-23T01:27:25;2.95;;;2.20;;
66935;SDS011;53847;51.984;5.896;2022-07-23T01:29:55;3.75;;;2.25;;
66935;SDS011;53847;51.984;5.896;2022-07-23T01:32:23;2.50;;;2.10;;
66935;SDS011;53847;51.984;5.896;2022-07-23T01:34:49;2.53;;;2.33;;
66935;SDS011;53847;51.984;5.896;2022-07-23T01:37:15;2.20;;;2.00;;
66935;SDS011;53847;51.984;5.896;2022-07-23T01:39:42;2.50;;;2.30;;
66935;SDS011;53847;51.984;5.896;2022-07-23T01:42:08;2.22;;;1.90;;
66935;SDS011;53847;51.984;5.896;2022-07-23T01:44:35;3.80;;;2.60;;
66935;SDS011;53847;51.984;5.896;2022-07-23T01:47:01;4.03;;;2.58;;
66935;SDS011;53847;51.984;5.896;2022-07-23T01:49:28;3.22;;;2.42;;
66935;SDS011;53847;51.984;5.896;2022-07-23T01:52:23;2.28;;;2.00;;
66935;SDS011;53847;51.984;5.896;2022-07-23T01:54:50;2.67;;;2.20;;
66935;SDS011;53847;51.984;5.896;2022-07-23T01:57:16;2.38;;;2.10;;
66935;SDS011;53847;51.984;5.896;2022-07-23T01:59:42;2.35;;;1.90;;
66935;SDS011;53847;51.984;5.896;2022-07-23T02:02:09;1.73;;;1.60;;
66935;SDS011;53847;51.984;5.896;2022-07-23T02:04:36;2.83;;;1.85;;
66935;SDS011;53847;51.984;5.896;2022-07-23T02:07:03;1.92;;;1.83;;
66935;SDS011;53847;51.984;5.896;2022-07-23T02:09:29;2.05;;;1.63;;
66935;SDS011;53847;51.984;5.896;2022-07-23T02:11:56;2.85;;;2.10;;
66935;SDS011;53847;51.984;5.896;2022-07-23T02:14:22;2.70;;;2.13;;
66935;SDS011;53847;51.984;5.896;2022-07-23T02:16:49;2.30;;;1.65;;
66935;SDS011;53847;51.984;5.896;2022-07-23T02:19:15;2.47;;;1.70;;
66935;SDS011;53847;51.984;5.896;2022-07-23T02:21:41;2.03;;;1.42;;
66935;SDS011;53847;51.984;5.896;2022-07-23T02:24:07;2.25;;;2.05;;
66935;SDS011;53847;51.984;5.896;2022-07-23T02:26:33;2.13;;;1.80;;
66935;SDS011;53847;51.984;5.896;2022-07-23T02:29:01;2.20;;;2.00;;
66935;SDS011;53847;51.984;5.896;2022-07-23T02:31:28;1.73;;;1.63;;
66935;SDS011;53847;51.984;5.896;2022-07-23T02:33:56;1.80;;;1.42;;
66935;SDS011;53847;51.984;5.896;2022-07-23T02:36:22;2.42;;;1.58;;
66935;SDS011;53847;51.984;5.896;2022-07-23T02:38:49;1.98;;;1.60;;
66935;SDS011;53847;51.984;5.896;2022-07-23T02:41:15;2.03;;;1.60;;
66935;SDS011;53847;51.984;5.896;2022-07-23T02:43:42;1.75;;;1.65;;
66935;SDS011;53847;51.984;5.896;2022-07-23T02:46:08;2.08;;;1.75;;
66935;SDS011;53847;51.984;5.896;2022-07-23T02:48:34;1.80;;;1.60;;
66935;SDS011;53847;51.984;5.896;2022-07-23T02:51:00;2.70;;;1.85;;
66935;SDS011;53847;51.984;5.896;2022-07-23T02:55:59;2.13;;;1.70;;
66935;SDS011;53847;51.984;5.896;2022-07-23T02:58:25;2.17;;;1.58;;
66935;SDS011;53847;51.984;5.896;2022-07-23T03:00:51;1.63;;;1.50;;
66935;SDS011;53847;51.984;5.896;2022-07-23T03:03:18;1.80;;;1.70;;
66935;SDS011;53847;51.984;5.896;2022-07-23T03:05:44;1.42;;;1.33;;
66935;SDS011;53847;51.984;5.896;2022-07-23T03:08:10;3.15;;;1.40;;
66935;SDS011;53847;51.984;5.896;2022-07-23T03:10:39;2.03;;;1.45;;
66935;SDS011;53847;51.984;5.896;2022-07-23T03:13:05;3.03;;;1.70;;
66935;SDS011;53847;51.984;5.896;2022-07-23T03:15:31;2.15;;;1.77;;
66935;SDS011;53847;51.984;5.896;2022-07-23T03:17:58;1.60;;;1.50;;
66935;SDS011;53847;51.984;5.896;2022-07-23T03:20:24;1.60;;;1.50;;
66935;SDS011;53847;51.984;5.896;2022-07-23T03:22:50;2.40;;;1.50;;
66935;SDS011;53847;51.984;5.896;2022-07-23T03:25:17;1.50;;;1.40;;
66935;SDS011;53847;51.984;5.896;2022-07-23T03:27:43;1.50;;;1.40;;
66935;SDS011;53847;51.984;5.896;2022-07-23T03:30:10;2.10;;;1.70;;
66935;SDS011;53847;51.984;5.896;2022-07-23T03:32:36;1.48;;;1.20;;
66935;SDS011;53847;51.984;5.896;2022-07-23T03:35:03;1.70;;;1.50;;
66935;SDS011;53847;51.984;5.896;2022-07-23T03:37:30;2.17;;;1.65;;
66935;SDS011;53847;51.984;5.896;2022-07-23T03:39:58;1.70;;;1.52;;
66935;SDS011;53847;51.984;5.896;2022-07-23T03:42:24;2.20;;;2.00;;
66935;SDS011;53847;51.984;5.896;2022-07-23T03:44:50;3.47;;;2.05;;
66935;SDS011;53847;51.984;5.896;2022-07-23T03:47:16;1.75;;;1.60;;
66935;SDS011;53847;51.984;5.896;2022-07-23T03:49:43;1.83;;;1.60;;
66935;SDS011;53847;51.984;5.896;2022-07-23T03:52:09;2.35;;;1.70;;
66935;SDS011;53847;51.984;5.896;2022-07-23T03:54:35;1.92;;;1.45;;
66935;SDS011;53847;51.984;5.896;2022-07-23T03:57:01;1.60;;;1.40;;
66935;SDS011;53847;51.984;5.896;2022-07-23T03:59:28;2.65;;;1.90;;
66935;SDS011;53847;51.984;5.896;2022-07-23T04:01:54;1.90;;;1.70;;
66935;SDS011;53847;51.984;5.896;2022-07-23T04:04:20;2.80;;;1.65;;
66935;SDS011;53847;51.984;5.896;2022-07-23T04:06:48;1.80;;;1.50;;
66935;SDS011;53847;51.984;5.896;2022-07-23T04:09:15;1.85;;;1.50;;
66935;SDS011;53847;51.984;5.896;2022-07-23T04:11:41;3.75;;;1.80;;
66935;SDS011;53847;51.984;5.896;2022-07-23T04:14:07;4.03;;;1.63;;
66935;SDS011;53847;51.984;5.896;2022-07-23T04:16:33;2.13;;;1.73;;
66935;SDS011;53847;51.984;5.896;2022-07-23T04:18:59;1.67;;;1.50;;
66935;SDS011;53847;51.984;5.896;2022-07-23T04:21:30;1.88;;;1.60;;
66935;SDS011;53847;51.984;5.896;2022-07-23T04:23:56;1.60;;;1.50;;
66935;SDS011;53847;51.984;5.896;2022-07-23T04:26:22;2.60;;;1.92;;
66935;SDS011;53847;51.984;5.896;2022-07-23T04:28:48;1.60;;;1.50;;
66935;SDS011;53847;51.984;5.896;2022-07-23T04:31:15;2.15;;;1.95;;
66935;SDS011;53847;51.984;5.896;2022-07-23T04:33:42;1.92;;;1.75;;
66935;SDS011;53847;51.984;5.896;2022-07-23T04:36:10;2.17;;;1.70;;
66935;SDS011;53847;51.984;5.896;2022-07-23T04:38:36;2.10;;;1.67;;
66935;SDS011;53847;51.984;5.896;2022-07-23T04:41:04;2.22;;;1.65;;
66935;SDS011;53847;51.984;5.896;2022-07-23T04:43:30;1.60;;;1.50;;
66935;SDS011;53847;51.984;5.896;2022-07-23T04:45:56;1.80;;;1.70;;
66935;SDS011;53847;51.984;5.896;2022-07-23T04:48:22;2.67;;;1.80;;
66935;SDS011;53847;51.984;5.896;2022-07-23T04:50:55;1.75;;;1.50;;
66935;SDS011;53847;51.984;5.896;2022-07-23T04:53:24;3.33;;;1.63;;
66935;SDS011;53847;51.984;5.896;2022-07-23T04:55:53;1.63;;;1.40;;
66935;SDS011;53847;51.984;5.896;2022-07-23T04:58:20;2.05;;;1.40;;
66935;SDS011;53847;51.984;5.896;2022-07-23T05:00:47;1.40;;;1.30;;
66935;SDS011;53847;51.984;5.896;2022-07-23T05:03:13;1.35;;;1.25;;
66935;SDS011;53847;51.984;5.896;2022-07-23T05:05:39;1.65;;;1.50;;
66935;SDS011;53847;51.984;5.896;2022-07-23T05:08:11;1.85;;;1.30;;
66935;SDS011;53847;51.984;5.896;2022-07-23T05:10:38;1.23;;;1.15;;
66935;SDS011;53847;51.984;5.896;2022-07-23T05:13:05;2.17;;;1.75;;
66935;SDS011;53847;51.984;5.896;2022-07-23T05:15:31;1.75;;;1.55;;
66935;SDS011;53847;51.984;5.896;2022-07-23T05:17:57;1.95;;;1.42;;
66935;SDS011;53847;51.984;5.896;2022-07-23T05:20:23;1.58;;;1.48;;
66935;SDS011;53847;51.984;5.896;2022-07-23T05:22:50;2.08;;;1.27;;
66935;SDS011;53847;51.984;5.896;2022-07-23T05:25:17;1.73;;;1.30;;
66935;SDS011;53847;51.984;5.896;2022-07-23T05:27:43;1.38;;;1.27;;
66935;SDS011;53847;51.984;5.896;2022-07-23T05:30:10;2.47;;;1.20;;
66935;SDS011;53847;51.984;5.896;2022-07-23T05:32:37;1.55;;;1.40;;
66935;SDS011;53847;51.984;5.896;2022-07-23T05:35:11;1.10;;;1.00;;
66935;SDS011;53847;51.984;5.896;2022-07-23T05:37:40;1.55;;;1.10;;
66935;SDS011;53847;51.984;5.896;2022-07-23T05:40:08;1.50;;;1.25;;
66935;SDS011;53847;51.984;5.896;2022-07-23T05:42:36;1.30;;;1.20;;
66935;SDS011;53847;51.984;5.896;2022-07-23T05:45:04;1.10;;;1.00;;
66935;SDS011;53847;51.984;5.896;2022-07-23T05:47:46;1.15;;;1.05;;
66935;SDS011;53847;51.984;5.896;2022-07-23T05:50:17;1.90;;;1.33;;
66935;SDS011;53847;51.984;5.896;2022-07-23T05:52:46;1.35;;;1.25;;
66935;SDS011;53847;51.984;5.896;2022-07-23T05:55:45;1.85;;;1.20;;
66935;SDS011;53847;51.984;5.896;2022-07-23T05:58:11;1.30;;;1.05;;
66935;SDS011;53847;51.984;5.896;2022-07-23T06:00:37;1.27;;;1.17;;
66935;SDS011;53847;51.984;5.896;2022-07-23T06:03:03;1.08;;;0.88;;
66935;SDS011;53847;51.984;5.896;2022-07-23T06:05:31;0.90;;;0.90;;
66935;SDS011;53847;51.984;5.896;2022-07-23T06:07:57;1.00;;;1.00;;
66935;SDS011;53847;51.984;5.896;2022-07-23T06:10:24;0.80;;;0.80;;
66935;SDS011;53847;51.984;5.896;2022-07-23T06:12:51;1.67;;;0.90;;
66935;SDS011;53847;51.984;5.896;2022-07-23T06:15:18;1.05;;;1.00;;
66935;SDS011;53847;51.984;5.896;2022-07-23T06:17:44;1.88;;;0.80;;
66935;SDS011;53847;51.984;5.896;2022-07-23T06:20:10;1.67;;;1.23;;
66935;SDS011;53847;51.984;5.896;2022-07-23T06:22:38;3.55;;;1.20;;
66935;SDS011;53847;51.984;5.896;2022-07-23T06:25:04;1.02;;;0.90;;
66935;SDS011;53847;51.984;5.896;2022-07-23T06:27:31;0.95;;;0.80;;
66935;SDS011;53847;51.984;5.896;2022-07-23T06:29:57;2.20;;;1.10;;
66935;SDS011;53847;51.984;5.896;2022-07-23T06:32:29;1.20;;;1.10;;
66935;SDS011;53847;51.984;5.896;2022-07-23T06:34:55;1.65;;;0.90;;
66935;SDS011;53847;51.984;5.896;2022-07-23T06:37:21;1.42;;;1.00;;
66935;SDS011;53847;51.984;5.896;2022-07-23T06:39:47;2.20;;;1.10;;
66935;SDS011;53847;51.984;5.896;2022-07-23T06:42:13;1.90;;;0.93;;
66935;SDS011;53847;51.984;5.896;2022-07-23T06:44:43;0.90;;;0.90;;
66935;SDS011;53847;51.984;5.896;2022-07-23T06:47:09;0.95;;;0.75;;
66935;SDS011;53847;51.984;5.896;2022-07-23T06:49:36;0.90;;;0.73;;
66935;SDS011;53847;51.984;5.896;2022-07-23T06:52:02;2.03;;;1.13;;
66935;SDS011;53847;51.984;5.896;2022-07-23T06:54:28;1.95;;;1.08;;
66935;SDS011;53847;51.984;5.896;2022-07-23T06:56:54;1.88;;;1.25;;
66935;SDS011;53847;51.984;5.896;2022-07-23T06:59:20;1.73;;;1.10;;
66935;SDS011;53847;51.984;5.896;2022-07-23T07:01:46;2.25;;;1.25;;
66935;SDS011;53847;51.984;5.896;2022-07-23T07:04:12;1.38;;;0.98;;
66935;SDS011;53847;51.984;5.896;2022-07-23T07:06:38;1.27;;;1.17;;
66935;SDS011;53847;51.984;5.896;2022-07-23T07:09:05;0.95;;;0.90;;
66935;SDS011;53847;51.984;5.896;2022-07-23T07:11:31;1.13;;;1.02;;
66935;SDS011;53847;51.984;5.896;2022-07-23T07:13:57;1.25;;;0.98;;
66935;SDS011;53847;51.984;5.896;2022-07-23T07:16:23;1.30;;;1.20;;
66935;SDS011;53847;51.984;5.896;2022-07-23T07:18:49;2.60;;;1.25;;
66935;SDS011;53847;51.984;5.896;2022-07-23T07:21:16;2.03;;;1.10;;
66935;SDS011;53847;51.984;5.896;2022-07-23T07:23:42;1.98;;;1.00;;
66935;SDS011;53847;51.984;5.896;2022-07-23T07:26:08;1.48;;;1.02;;
66935;SDS011;53847;51.984;5.896;2022-07-23T07:28:34;1.65;;;1.00;;
66935;SDS011;53847;51.984;5.896;2022-07-23T07:31:00;1.23;;;0.90;;
66935;SDS011;53847;51.984;5.896;2022-07-23T07:33:26;1.10;;;1.00;;
66935;SDS011;53847;51.984;5.896;2022-07-23T07:35:52;4.28;;;1.20;;
66935;SDS011;53847;51.984;5.896;2022-07-23T07:38:18;1.10;;;1.00;;
66935;SDS011;53847;51.984;5.896;2022-07-23T07:40:44;1.10;;;0.93;;
66935;SDS011;53847;51.984;5.896;2022-07-23T07:43:10;2.67;;;1.52;;
66935;SDS011;53847;51.984;5.896;2022-07-23T07:45:36;2.33;;;1.10;;
66935;SDS011;53847;51.984;5.896;2022-07-23T07:48:03;1.20;;;1.08;;
66935;SDS011;53847;51.984;5.896;2022-07-23T07:50:30;1.30;;;1.00;;
66935;SDS011;53847;51.984;5.896;2022-07-23T07:52:56;1.00;;;0.90;;
66935;SDS011;53847;51.984;5.896;2022-07-23T07:55:22;1.55;;;0.90;;
66935;SDS011;53847;51.984;5.896;2022-07-23T07:57:49;2.53;;;1.00;;
66935;SDS011;53847;51.984;5.896;2022-07-23T08:00:15;1.10;;;0.98;;
66935;SDS011;53847;51.984;5.896;2022-07-23T08:02:43;1.40;;;1.20;;
66935;SDS011;53847;51.984;5.896;2022-07-23T08:05:10;1.23;;;1.13;;
66935;SDS011;53847;51.984;5.896;2022-07-23T08:07:37;1.30;;;0.90;;
66935;SDS011;53847;51.984;5.896;2022-07-23T08:10:03;4.20;;;1.35;;
66935;SDS011;53847;51.984;5.896;2022-07-23T08:12:46;1.25;;;1.13;;
66935;SDS011;53847;51.984;5.896;2022-07-23T08:15:14;1.10;;;1.00;;
66935;SDS011;53847;51.984;5.896;2022-07-23T08:17:42;1.30;;;0.90;;
66935;SDS011;53847;51.984;5.896;2022-07-23T08:20:10;1.08;;;0.95;;
66935;SDS011;53847;51.984;5.896;2022-07-23T08:22:45;1.48;;;1.00;;
66935;SDS011;53847;51.984;5.896;2022-07-23T08:25:23;1.40;;;1.05;;
66935;SDS011;53847;51.984;5.896;2022-07-23T08:27:51;0.90;;;0.90;;
66935;SDS011;53847;51.984;5.896;2022-07-23T08:30:17;1.13;;;0.90;;
66935;SDS011;53847;51.984;5.896;2022-07-23T08:32:47;1.35;;;1.00;;
66935;SDS011;53847;51.984;5.896;2022-07-23T08:35:14;0.90;;;0.90;;
66935;SDS011;53847;51.984;5.896;2022-07-23T08:37:40;2.03;;;1.10;;
66935;SDS011;53847;51.984;5.896;2022-07-23T08:40:06;1.48;;;1.10;;
66935;SDS011;53847;51.984;5.896;2022-07-23T08:42:33;1.10;;;1.00;;
66935;SDS011;53847;51.984;5.896;2022-07-23T08:45:00;2.38;;;1.25;;
66935;SDS011;53847;51.984;5.896;2022-07-23T08:47:28;2.15;;;1.27;;
66935;SDS011;53847;51.984;5.896;2022-07-23T08:49:55;1.60;;;1.15;;
66935;SDS011;53847;51.984;5.896;2022-07-23T08:52:24;1.90;;;1.30;;
66935;SDS011;53847;51.984;5.896;2022-07-23T08:54:50;1.98;;;1.10;;
66935;SDS011;53847;51.984;5.896;2022-07-23T08:57:17;1.30;;;1.10;;
66935;SDS011;53847;51.984;5.896;2022-07-23T08:59:46;0.98;;;0.98;;
66935;SDS011;53847;51.984;5.896;2022-07-23T09:02:12;1.73;;;1.02;;
66935;SDS011;53847;51.984;5.896;2022-07-23T09:04:38;1.20;;;1.00;;
66935;SDS011;53847;51.984;5.896;2022-07-23T09:07:07;1.38;;;1.00;;
66935;SDS011;53847;51.984;5.896;2022-07-23T09:09:33;2.80;;;1.25;;
66935;SDS011;53847;51.984;5.896;2022-07-23T09:12:03;1.40;;;1.00;;
66935;SDS011;53847;51.984;5.896;2022-07-23T09:14:41;1.15;;;1.05;;
66935;SDS011;53847;51.984;5.896;2022-07-23T09:17:12;1.10;;;0.90;;
66935;SDS011;53847;51.984;5.896;2022-07-23T09:19:44;0.80;;;0.80;;
66935;SDS011;53847;51.984;5.896;2022-07-23T09:22:44;0.80;;;0.80;;
66935;SDS011;53847;51.984;5.896;2022-07-23T09:25:05;1.67;;;1.20;;
66935;SDS011;53847;51.984;5.896;2022-07-23T09:27:46;1.10;;;1.00;;
66935;SDS011;53847;51.984;5.896;2022-07-23T09:30:21;1.45;;;1.10;;
66935;SDS011;53847;51.984;5.896;2022-07-23T09:35:42;1.50;;;1.10;;
66935;SDS011;53847;51.984;5.896;2022-07-23T09:38:13;1.50;;;1.40;;
66935;SDS011;53847;51.984;5.896;2022-07-23T09:40:40;1.90;;;1.17;;
66935;SDS011;53847;51.984;5.896;2022-07-23T09:43:06;1.25;;;1.10;;
66935;SDS011;53847;51.984;5.896;2022-07-23T09:45:32;1.90;;;1.40;;
66935;SDS011;53847;51.984;5.896;2022-07-23T09:48:12;1.10;;;1.00;;
66935;SDS011;53847;51.984;5.896;2022-07-23T09:50:42;1.60;;;1.50;;
66935;SDS011;53847;51.984;5.896;2022-07-23T09:53:23;1.73;;;1.30;;
66935;SDS011;53847;51.984;5.896;2022-07-23T09:55:50;1.08;;;1.00;;
66935;SDS011;53847;51.984;5.896;2022-07-23T09:58:18;1.60;;;1.00;;
66935;SDS011;53847;51.984;5.896;2022-07-23T10:00:46;1.50;;;1.40;;
66935;SDS011;53847;51.984;5.896;2022-07-23T10:03:14;1.85;;;1.30;;
66935;SDS011;53847;51.984;5.896;2022-07-23T10:05:40;2.35;;;1.20;;
66935;SDS011;53847;51.984;5.896;2022-07-23T10:08:40;1.20;;;1.10;;
66935;SDS011;53847;51.984;5.896;2022-07-23T10:11:28;1.13;;;1.08;;
66935;SDS011;53847;51.984;5.896;2022-07-23T10:14:21;3.03;;;1.50;;
66935;SDS011;53847;51.984;5.896;2022-07-23T10:16:55;1.55;;;1.45;;
66935;SDS011;53847;51.984;5.896;2022-07-23T10:19:21;1.90;;;1.65;;
66935;SDS011;53847;51.984;5.896;2022-07-23T10:21:53;1.58;;;1.48;;
66935;SDS011;53847;51.984;5.896;2022-07-23T10:24:34;2.30;;;1.77;;
66935;SDS011;53847;51.984;5.896;2022-07-23T10:35:18;1.48;;;1.38;;
66935;SDS011;53847;51.984;5.896;2022-07-23T10:37:49;1.70;;;1.60;;
66935;SDS011;53847;51.984;5.896;2022-07-23T10:40:21;2.78;;;1.90;;
66935;SDS011;53847;51.984;5.896;2022-07-23T10:42:49;2.83;;;1.48;;
66935;SDS011;53847;51.984;5.896;2022-07-23T10:45:23;1.40;;;1.30;;
66935;SDS011;53847;51.984;5.896;2022-07-23T10:47:52;1.50;;;1.40;;
66935;SDS011;53847;51.984;5.896;2022-07-23T10:50:19;2.40;;;1.48;;
66935;SDS011;53847;51.984;5.896;2022-07-23T10:57:59;1.50;;;1.40;;
66935;SDS011;53847;51.984;5.896;2022-07-23T11:00:28;1.48;;;1.38;;
66935;SDS011;53847;51.984;5.896;2022-07-23T11:02:56;1.40;;;1.30;;
66935;SDS011;53847;51.984;5.896;2022-07-23T11:05:43;1.65;;;1.42;;
66935;SDS011;53847;51.984;5.896;2022-07-23T11:08:11;1.35;;;1.25;;
66935;SDS011;53847;51.984;5.896;2022-07-23T11:10:40;1.35;;;1.25;;
66935;SDS011;53847;51.984;5.896;2022-07-23T11:31:53;1.63;;;1.40;;
66935;SDS011;53847;51.984;5.896;2022-07-23T11:34:34;1.40;;;1.30;;
66935;SDS011;53847;51.984;5.896;2022-07-23T11:37:06;1.33;;;1.10;;
66935;SDS011;53847;51.984;5.896;2022-07-23T11:39:34;2.00;;;1.63;;
66935;SDS011;53847;51.984;5.896;2022-07-23T11:42:01;1.60;;;1.50;;
66935;SDS011;53847;51.984;5.896;2022-07-23T11:44:30;1.75;;;1.65;;
66935;SDS011;53847;51.984;5.896;2022-07-23T11:47:00;1.50;;;1.40;;
66935;SDS011;53847;51.984;5.896;2022-07-23T11:49:27;2.92;;;2.03;;
66935;SDS011;53847;51.984;5.896;2022-07-23T11:52:11;2.17;;;1.48;;
66935;SDS011;53847;51.984;5.896;2022-07-23T11:57:13;1.90;;;1.50;;
66935;SDS011;53847;51.984;5.896;2022-07-23T11:59:40;1.48;;;1.38;;
66935;SDS011;53847;51.984;5.896;2022-07-23T12:02:07;1.30;;;1.20;;
66935;SDS011;53847;51.984;5.896;2022-07-23T12:04:43;1.50;;;1.40;;
66935;SDS011;53847;51.984;5.896;2022-07-23T12:07:24;2.40;;;1.83;;
66935;SDS011;53847;51.984;5.896;2022-07-23T12:10:09;2.00;;;1.90;;
66935;SDS011;53847;51.984;5.896;2022-07-23T12:12:51;1.70;;;1.60;;
66935;SDS011;53847;51.984;5.896;2022-07-23T12:15:28;1.63;;;1.52;;
66935;SDS011;53847;51.984;5.896;2022-07-23T12:17:56;1.90;;;1.70;;
66935;SDS011;53847;51.984;5.896;2022-07-23T12:20:23;1.85;;;1.70;;
66935;SDS011;53847;51.984;5.896;2022-07-23T12:22:55;1.67;;;1.50;;
66935;SDS011;53847;51.984;5.896;2022-07-23T12:25:23;2.15;;;1.60;;
66935;SDS011;53847;51.984;5.896;2022-07-23T12:28:27;1.25;;;1.20;;
66935;SDS011;53847;51.984;5.896;2022-07-23T12:30:53;1.65;;;1.20;;
66935;SDS011;53847;51.984;5.896;2022-07-23T12:33:24;1.75;;;1.65;;
66935;SDS011;53847;51.984;5.896;2022-07-23T12:35:52;3.20;;;2.05;;
66935;SDS011;53847;51.984;5.896;2022-07-23T12:38:19;2.03;;;1.67;;
66935;SDS011;53847;51.984;5.896;2022-07-23T12:40:57;1.92;;;1.73;;
66935;SDS011;53847;51.984;5.896;2022-07-23T12:46:08;1.60;;;1.50;;
66935;SDS011;53847;51.984;5.896;2022-07-23T12:48:39;1.88;;;1.60;;
66935;SDS011;53847;51.984;5.896;2022-07-23T12:51:19;1.80;;;1.70;;
66935;SDS011;53847;51.984;5.896;2022-07-23T12:53:46;2.13;;;1.92;;
66935;SDS011;53847;51.984;5.896;2022-07-23T13:03:57;1.70;;;1.50;;
66935;SDS011;53847;51.984;5.896;2022-07-23T13:06:23;1.77;;;1.60;;
66935;SDS011;53847;51.984;5.896;2022-07-23T13:08:49;1.45;;;1.35;;
66935;SDS011;53847;51.984;5.896;2022-07-23T13:11:16;1.60;;;1.50;;
66935;SDS011;53847;51.984;5.896;2022-07-23T13:13:42;1.63;;;1.35;;
66935;SDS011;53847;51.984;5.896;2022-07-23T13:16:08;2.00;;;1.48;;
66935;SDS011;53847;51.984;5.896;2022-07-23T13:18:38;1.60;;;1.50;;
66935;SDS011;53847;51.984;5.896;2022-07-23T13:21:41;1.70;;;1.60;;
66935;SDS011;53847;51.984;5.896;2022-07-23T13:24:08;3.05;;;1.70;;
66935;SDS011;53847;51.984;5.896;2022-07-23T13:26:35;1.50;;;1.40;;
66935;SDS011;53847;51.984;5.896;2022-07-23T13:29:03;1.25;;;1.17;;
66935;SDS011;53847;51.984;5.896;2022-07-23T13:31:29;3.05;;;1.77;;
66935;SDS011;53847;51.984;5.896;2022-07-23T13:33:56;1.60;;;1.50;;
66935;SDS011;53847;51.984;5.896;2022-07-23T13:36:23;3.53;;;1.83;;
66935;SDS011;53847;51.984;5.896;2022-07-23T13:39:05;2.67;;;1.65;;
66935;SDS011;53847;51.984;5.896;2022-07-23T13:46:40;1.70;;;1.60;;
66935;SDS011;53847;51.984;5.896;2022-07-23T13:49:13;3.53;;;1.98;;
66935;SDS011;53847;51.984;5.896;2022-07-23T13:54:09;1.48;;;1.38;;
66935;SDS011;53847;51.984;5.896;2022-07-23T13:56:35;1.30;;;1.20;;
66935;SDS011;53847;51.984;5.896;2022-07-23T13:59:02;2.85;;;1.52;;
66935;SDS011;53847;51.984;5.896;2022-07-23T14:01:29;1.70;;;1.55;;
66935;SDS011;53847;51.984;5.896;2022-07-23T14:03:55;1.75;;;1.42;;
66935;SDS011;53847;51.984;5.896;2022-07-23T14:06:22;1.50;;;1.40;;
66935;SDS011;53847;51.984;5.896;2022-07-23T14:08:49;1.70;;;1.60;;
66935;SDS011;53847;51.984;5.896;2022-07-23T14:11:15;3.08;;;1.67;;
66935;SDS011;53847;51.984;5.896;2022-07-23T14:13:42;1.70;;;1.60;;
66935;SDS011;53847;51.984;5.896;2022-07-23T14:16:08;2.03;;;1.63;;
66935;SDS011;53847;51.984;5.896;2022-07-23T14:18:34;1.70;;;1.60;;
66935;SDS011;53847;51.984;5.896;2022-07-23T14:21:04;1.88;;;1.65;;
66935;SDS011;53847;51.984;5.896;2022-07-23T14:23:34;1.98;;;1.75;;
66935;SDS011;53847;51.984;5.896;2022-07-23T14:26:06;2.35;;;1.70;;
66935;SDS011;53847;51.984;5.896;2022-07-23T14:28:33;1.70;;;1.60;;
66935;SDS011;53847;51.984;5.896;2022-07-23T14:31:02;1.50;;;1.40;;
66935;SDS011;53847;51.984;5.896;2022-07-23T14:33:29;2.53;;;1.80;;
66935;SDS011;53847;51.984;5.896;2022-07-23T14:35:55;1.60;;;1.50;;
66935;SDS011;53847;51.984;5.896;2022-07-23T14:38:28;1.52;;;1.42;;
66935;SDS011;53847;51.984;5.896;2022-07-23T14:40:55;1.90;;;1.70;;
66935;SDS011;53847;51.984;5.896;2022-07-23T14:43:22;2.40;;;2.20;;
66935;SDS011;53847;51.984;5.896;2022-07-23T14:45:49;2.10;;;1.80;;
66935;SDS011;53847;51.984;5.896;2022-07-23T14:48:15;2.95;;;1.60;;
66935;SDS011;53847;51.984;5.896;2022-07-23T14:50:42;2.83;;;1.67;;
66935;SDS011;53847;51.984;5.896;2022-07-23T14:53:08;1.70;;;1.60;;
66935;SDS011;53847;51.984;5.896;2022-07-23T14:55:35;3.25;;;2.08;;
66935;SDS011;53847;51.984;5.896;2022-07-23T14:58:01;2.13;;;1.90;;
66935;SDS011;53847;51.984;5.896;2022-07-23T15:00:31;1.83;;;1.73;;
66935;SDS011;53847;51.984;5.896;2022-07-23T15:02:58;2.70;;;1.80;;
66935;SDS011;53847;51.984;5.896;2022-07-23T15:05:24;1.85;;;1.75;;
66935;SDS011;53847;51.984;5.896;2022-07-23T15:07:51;1.80;;;1.70;;
66935;SDS011;53847;51.984;5.896;2022-07-23T15:10:18;1.73;;;1.63;;
66935;SDS011;53847;51.984;5.896;2022-07-23T15:12:44;2.58;;;1.90;;
66935;SDS011;53847;51.984;5.896;2022-07-23T15:15:10;2.40;;;2.20;;
66935;SDS011;53847;51.984;5.896;2022-07-23T15:17:37;2.08;;;1.90;;
66935;SDS011;53847;51.984;5.896;2022-07-23T15:20:03;1.67;;;1.58;;
66935;SDS011;53847;51.984;5.896;2022-07-23T15:22:31;3.00;;;2.08;;
66935;SDS011;53847;51.984;5.896;2022-07-23T15:24:58;2.67;;;2.28;;
66935;SDS011;53847;51.984;5.896;2022-07-23T15:27:25;1.83;;;1.73;;
66935;SDS011;53847;51.984;5.896;2022-07-23T15:29:52;2.13;;;1.98;;
66935;SDS011;53847;51.984;5.896;2022-07-23T15:32:18;2.10;;;1.90;;
66935;SDS011;53847;51.984;5.896;2022-07-23T15:34:45;2.25;;;1.80;;
66935;SDS011;53847;51.984;5.896;2022-07-23T15:37:11;2.00;;;1.90;;
66935;SDS011;53847;51.984;5.896;2022-07-23T15:39:37;1.92;;;1.63;;
66935;SDS011;53847;51.984;5.896;2022-07-23T15:42:06;2.97;;;2.00;;
66935;SDS011;53847;51.984;5.896;2022-07-23T15:44:32;1.90;;;1.80;;
66935;SDS011;53847;51.984;5.896;2022-07-23T15:46:58;2.45;;;1.92;;
66935;SDS011;53847;51.984;5.896;2022-07-23T15:49:25;1.83;;;1.70;;
66935;SDS011;53847;51.984;5.896;2022-07-23T15:51:52;1.70;;;1.60;;
66935;SDS011;53847;51.984;5.896;2022-07-23T15:54:18;1.90;;;1.80;;